Time;durP1;ratioP1;P1;durP2;ratioP2;P2;SDS_P1;SDS_P2;PMS_P1;PMS_P2;Temp;Humidity;BMP_temperature;BMP_pressure;BME280_temperature;BME280_humidity;BME280_pressure;Samples;Min_cycle;Max_cycle;Signal;HPM_P1;HPM_P2
2021/10/15 11:53:27;;;;;;;5.03;2.10;;;;;;;;;;6214441;22;20032;-76
2021/10/15 11:55:54;;;;;;;2.80;2.20;;;;;;;;;;6217081;23;20008;-76
2021/10/15 11:58:20;;;;;;;4.30;2.30;;;;;;;;;;6215445;23;20000;-75
2021/10/15 12:01:00;;;;;;;3.03;2.42;;;;;;;;;;6216067;23;20335;-75
2021/10/15 12:03:45;;;;;;;3.28;2.38;;;;;;;;;;6214213;23;20403;-77
2021/10/15 12:06:19;;;;;;;4.35;2.50;;;;;;;;;;6216196;23;20036;-75
2021/10/15 12:08:47;;;;;;;3.95;2.20;;;;;;;;;;6215767;23;20087;-75
2021/10/15 12:11:41;;;;;;;4.70;2.65;;;;;;;;;;6216108;23;20009;-74
2021/10/15 12:14:23;;;;;;;3.90;2.50;;;;;;;;;;6216559;23;20005;-76
2021/10/15 12:16:59;;;;;;;3.70;3.10;;;;;;;;;;6240141;23;20039;-75
2021/10/15 12:19:34;;;;;;;3.03;2.60;;;;;;;;;;6239586;23;20128;-74
2021/10/15 12:22:11;;;;;;;3.05;2.75;;;;;;;;;;6216288;23;20004;-75
2021/10/15 12:24:46;;;;;;;4.82;2.97;;;;;;;;;;6216473;23;20072;-75
2021/10/15 12:27:17;;;;;;;3.75;2.90;;;;;;;;;;6216476;23;20008;-74
2021/10/15 12:29:57;;;;;;;3.92;2.50;;;;;;;;;;6214698;23;20095;-75
2021/10/15 12:32:42;;;;;;;3.90;2.70;;;;;;;;;;6214991;23;20066;-74
2021/10/15 12:35:16;;;;;;;3.42;2.20;;;;;;;;;;6214538;23;20100;-76
2021/10/15 12:37:50;;;;;;;3.85;2.22;;;;;;;;;;6215659;23;20008;-75
2021/10/15 12:40:24;;;;;;;6.90;2.65;;;;;;;;;;6215188;23;20007;-75
2021/10/15 12:43:14;;;;;;;2.88;2.35;;;;;;;;;;6216244;23;20004;-75
2021/10/15 12:45:45;;;;;;;3.83;2.90;;;;;;;;;;6202868;23;20004;-75
2021/10/15 12:48:18;;;;;;;3.53;2.80;;;;;;;;;;6216085;23;20459;-75
2021/10/15 12:50:56;;;;;;;3.22;2.08;;;;;;;;;;6215999;23;20015;-75
2021/10/15 12:53:21;;;;;;;2.50;2.30;;;;;;;;;;6215968;23;20363;-75
2021/10/15 12:55:58;;;;;;;2.45;2.20;;;;;;;;;;6216197;23;20008;-76
2021/10/15 12:58:29;;;;;;;2.58;2.20;;;;;;;;;;6214307;23;20000;-75
2021/10/15 13:00:57;;;;;;;3.47;2.00;;;;;;;;;;6216397;23;20008;-75
2021/10/15 13:03:24;;;;;;;6.53;2.92;;;;;;;;;;6214636;23;20088;-75
2021/10/15 13:05:52;;;;;;;2.92;2.15;;;;;;;;;;6215902;23;20001;-74
2021/10/15 13:08:18;;;;;;;2.83;2.60;;;;;;;;;;6214283;23;20008;-74
2021/10/15 13:10:45;;;;;;;3.08;2.00;;;;;;;;;;6216030;23;20004;-73
2021/10/15 13:13:12;;;;;;;4.22;2.30;;;;;;;;;;6216240;23;20436;-74
2021/10/15 13:15:39;;;;;;;3.88;2.10;;;;;;;;;;6214324;23;20035;-75
2021/10/15 13:18:04;;;;;;;4.05;3.13;;;;;;;;;;6216526;23;20008;-74
2021/10/15 13:20:30;;;;;;;3.83;2.75;;;;;;;;;;6215848;23;20309;-74
2021/10/15 13:22:58;;;;;;;2.72;2.30;;;;;;;;;;6216051;23;20478;-74
2021/10/15 13:25:25;;;;;;;2.60;2.40;;;;;;;;;;6215828;23;20025;-77
2021/10/15 13:27:51;;;;;;;3.45;2.10;;;;;;;;;;6214220;23;20019;-74
2021/10/15 13:30:16;;;;;;;4.88;2.67;;;;;;;;;;6215696;23;20006;-74
2021/10/15 13:32:42;;;;;;;5.25;2.85;;;;;;;;;;6215265;23;20004;-75
2021/10/15 13:35:08;;;;;;;3.65;2.55;;;;;;;;;;6239057;23;20103;-75
2021/10/15 13:37:39;;;;;;;3.58;2.92;;;;;;;;;;6215335;23;20001;-74
2021/10/15 13:40:07;;;;;;;3.72;2.63;;;;;;;;;;6215305;23;20009;-74
2021/10/15 13:43:00;;;;;;;3.63;2.70;;;;;;;;;;6238694;23;20016;-74
2021/10/15 13:50:34;;;;;;;2.63;2.40;;;;;;;;;;6213976;23;20015;-75
2021/10/15 13:53:04;;;;;;;3.83;2.85;;;;;;;;;;6214450;23;20017;-75
2021/10/15 13:55:33;;;;;;;4.05;2.78;;;;;;;;;;6215449;23;20014;-75
2021/10/15 13:58:00;;;;;;;4.53;2.33;;;;;;;;;;6215237;23;20005;-75
2021/10/15 14:00:32;;;;;;;3.75;2.92;;;;;;;;;;6215116;23;20004;-76
2021/10/15 14:03:07;;;;;;;4.00;3.35;;;;;;;;;;6215308;23;20036;-75
2021/10/15 14:05:33;;;;;;;5.03;3.95;;;;;;;;;;6215270;23;20411;-74
2021/10/15 14:07:58;;;;;;;3.95;3.00;;;;;;;;;;6215290;23;20011;-75
2021/10/15 14:10:23;;;;;;;4.18;3.58;;;;;;;;;;6215206;23;20024;-75
2021/10/15 14:12:49;;;;;;;4.25;3.35;;;;;;;;;;6215273;23;20001;-76
2021/10/15 14:15:16;;;;;;;5.43;3.42;;;;;;;;;;6215467;23;20387;-75
2021/10/15 14:17:41;;;;;;;4.75;3.67;;;;;;;;;;6215340;23;20000;-75
2021/10/15 14:20:08;;;;;;;4.65;3.45;;;;;;;;;;6238770;23;20012;-74
2021/10/15 14:22:33;;;;;;;5.43;4.43;;;;;;;;;;6215114;23;20448;-75
2021/10/15 14:24:59;;;;;;;9.07;5.40;;;;;;;;;;6214429;23;20013;-75
2021/10/15 14:27:24;;;;;;;10.50;4.60;;;;;;;;;;6213902;23;20008;-74
2021/10/15 14:29:50;;;;;;;5.95;5.03;;;;;;;;;;6214862;23;20008;-75
2021/10/15 14:32:16;;;;;;;5.03;4.50;;;;;;;;;;6215604;23;20008;-74
2021/10/15 14:34:41;;;;;;;5.03;3.63;;;;;;;;;;6215413;23;20336;-74
2021/10/15 14:37:07;;;;;;;6.65;3.92;;;;;;;;;;6215516;23;20032;-74
2021/10/15 14:39:33;;;;;;;5.22;4.18;;;;;;;;;;6215399;23;20004;-74
2021/10/15 14:41:59;;;;;;;4.95;3.40;;;;;;;;;;6213801;23;20011;-75
2021/10/15 14:44:24;;;;;;;5.18;3.38;;;;;;;;;;6239141;23;20013;-74
2021/10/15 14:46:50;;;;;;;5.55;3.83;;;;;;;;;;6214384;23;20112;-74
2021/10/15 14:49:16;;;;;;;6.05;3.72;;;;;;;;;;6215339;23;20076;-74
2021/10/15 14:51:42;;;;;;;8.13;4.28;;;;;;;;;;6215107;23;20020;-75
2021/10/15 14:54:08;;;;;;;4.85;3.67;;;;;;;;;;6215325;23;20062;-74
2021/10/15 14:56:34;;;;;;;4.60;3.28;;;;;;;;;;6215295;23;20119;-77
2021/10/15 14:59:02;;;;;;;5.22;3.63;;;;;;;;;;6213748;23;20009;-74
2021/10/15 15:01:28;;;;;;;5.43;3.38;;;;;;;;;;6215201;23;20007;-75
2021/10/15 15:03:54;;;;;;;5.93;3.17;;;;;;;;;;6216119;23;20004;-76
2021/10/15 15:06:19;;;;;;;5.55;2.78;;;;;;;;;;6217290;23;20005;-75
2021/10/15 15:08:45;;;;;;;5.03;3.65;;;;;;;;;;6241049;23;20008;-74
2021/10/15 15:11:10;;;;;;;5.65;3.83;;;;;;;;;;6217245;23;20001;-74
2021/10/15 15:13:36;;;;;;;6.53;4.63;;;;;;;;;;6216348;23;20032;-74
2021/10/15 15:16:03;;;;;;;7.60;4.40;;;;;;;;;;6217341;23;20031;-74
2021/10/15 15:18:29;;;;;;;4.60;3.47;;;;;;;;;;6217028;23;20023;-73
2021/10/15 15:21:02;;;;;;;6.32;3.47;;;;;;;;;;6216389;23;20007;-76
2021/10/15 15:23:35;;;;;;;5.75;4.38;;;;;;;;;;6216424;23;20004;-74
2021/10/15 15:26:03;;;;;;;6.45;4.90;;;;;;;;;;6217194;23;20032;-74
2021/10/15 15:28:29;;;;;;;5.78;4.40;;;;;;;;;;6217073;23;20024;-75
2021/10/15 15:31:02;;;;;;;5.63;4.72;;;;;;;;;;6216702;23;20007;-75
2021/10/15 15:33:29;;;;;;;10.48;5.22;;;;;;;;;;6217229;23;20075;-75
2021/10/15 15:35:54;;;;;;;5.75;4.50;;;;;;;;;;6216976;23;20008;-75
2021/10/15 15:38:20;;;;;;;5.68;4.13;;;;;;;;;;6217078;23;20004;-75
2021/10/15 15:40:46;;;;;;;7.05;4.68;;;;;;;;;;6216847;23;20001;-76
2021/10/15 15:43:12;;;;;;;8.73;6.10;;;;;;;;;;6217108;23;20008;-74
2021/10/15 15:45:42;;;;;;;6.13;4.63;;;;;;;;;;6216569;23;20375;-75
2021/10/15 15:48:10;;;;;;;10.52;6.40;;;;;;;;;;6216819;23;20004;-74
2021/10/15 15:50:39;;;;;;;11.02;7.60;;;;;;;;;;6215147;23;20074;-74
2021/10/15 15:53:07;;;;;;;12.63;7.30;;;;;;;;;;6216349;23;20008;-74
2021/10/15 15:55:33;;;;;;;10.20;6.80;;;;;;;;;;6216453;23;20082;-75
2021/10/15 15:57:59;;;;;;;8.07;5.70;;;;;;;;;;6216615;23;20000;-75
2021/10/15 16:00:25;;;;;;;7.90;5.93;;;;;;;;;;6216484;23;20055;-74
2021/10/15 16:02:50;;;;;;;7.00;5.15;;;;;;;;;;6216344;23;20005;-74
2021/10/15 16:05:17;;;;;;;6.82;5.47;;;;;;;;;;6216577;23;20348;-74
2021/10/15 16:07:42;;;;;;;8.55;6.05;;;;;;;;;;6216291;23;20464;-75
2021/10/15 16:10:10;;;;;;;10.65;6.13;;;;;;;;;;6216323;23;20001;-75
2021/10/15 16:12:35;;;;;;;6.60;4.60;;;;;;;;;;6216134;23;20493;-75
2021/10/15 16:15:01;;;;;;;5.65;4.03;;;;;;;;;;6239438;23;20048;-75
2021/10/15 16:17:26;;;;;;;5.20;4.20;;;;;;;;;;6215891;23;20004;-76
2021/10/15 16:19:53;;;;;;;5.00;3.80;;;;;;;;;;6216028;23;20004;-75
2021/10/15 16:22:18;;;;;;;7.88;4.05;;;;;;;;;;6215925;23;20021;-80
2021/10/15 16:24:44;;;;;;;6.80;3.20;;;;;;;;;;6216275;23;20008;-76
2021/10/15 16:27:09;;;;;;;7.88;4.43;;;;;;;;;;6216140;23;20004;-76
2021/10/15 16:29:35;;;;;;;11.07;6.40;;;;;;;;;;6216268;23;20094;-76
2021/10/15 16:32:01;;;;;;;8.48;5.60;;;;;;;;;;6216486;23;20015;-75
2021/10/15 16:34:27;;;;;;;6.82;4.68;;;;;;;;;;6216096;23;20011;-77
2021/10/15 16:36:52;;;;;;;5.88;4.90;;;;;;;;;;6215973;23;20009;-75
2021/10/15 16:39:19;;;;;;;7.57;4.47;;;;;;;;;;6216525;23;20068;-77
2021/10/15 16:41:44;;;;;;;6.43;3.72;;;;;;;;;;6216045;23;20421;-77
2021/10/15 16:44:10;;;;;;;7.40;4.00;;;;;;;;;;6239676;23;20038;-77
2021/10/15 16:46:36;;;;;;;10.38;7.60;;;;;;;;;;6216148;23;20004;-78
2021/10/15 16:49:02;;;;;;;10.68;6.57;;;;;;;;;;6216311;23;20007;-80
2021/10/15 16:51:27;;;;;;;8.60;4.82;;;;;;;;;;6215939;23;20013;-74
2021/10/15 16:53:55;;;;;;;4.93;4.05;;;;;;;;;;6215753;23;20000;-74
2021/10/15 16:56:21;;;;;;;7.95;5.63;;;;;;;;;;6215568;23;20008;-76
2021/10/15 16:58:46;;;;;;;8.68;6.82;;;;;;;;;;6215957;23;20062;-77
2021/10/15 17:01:11;;;;;;;8.65;6.00;;;;;;;;;;6215588;23;20328;-75
2021/10/15 17:03:37;;;;;;;8.73;5.72;;;;;;;;;;6216192;23;19996;-76
2021/10/15 17:06:02;;;;;;;7.07;4.53;;;;;;;;;;6215384;23;20005;-74
2021/10/15 17:08:28;;;;;;;6.35;5.47;;;;;;;;;;6215827;23;20417;-77
2021/10/15 17:10:53;;;;;;;6.20;3.97;;;;;;;;;;6215651;23;20005;-77
2021/10/15 17:13:21;;;;;;;9.52;5.07;;;;;;;;;;6215189;23;20486;-77
2021/10/15 17:15:48;;;;;;;8.15;6.00;;;;;;;;;;6215983;23;20027;-74
2021/10/15 17:18:13;;;;;;;10.70;7.35;;;;;;;;;;6215323;23;20020;-74
2021/10/15 17:20:39;;;;;;;8.30;6.28;;;;;;;;;;6215423;23;20004;-74
2021/10/15 17:23:04;;;;;;;10.50;7.57;;;;;;;;;;6215214;23;20055;-75
2021/10/15 17:25:30;;;;;;;6.88;5.10;;;;;;;;;;6215542;23;19997;-74
2021/10/15 17:27:56;;;;;;;4.65;4.13;;;;;;;;;;6215217;23;20120;-75
2021/10/15 17:30:22;;;;;;;6.88;4.20;;;;;;;;;;6215385;23;20309;-74
2021/10/15 17:32:52;;;;;;;6.82;4.97;;;;;;;;;;6215615;23;20080;-75
2021/10/15 17:35:18;;;;;;;10.27;6.95;;;;;;;;;;6215784;23;20007;-74
2021/10/15 17:37:43;;;;;;;11.95;7.70;;;;;;;;;;6215509;23;20004;-74
2021/10/15 17:40:09;;;;;;;7.25;5.90;;;;;;;;;;6215583;23;20408;-75
2021/10/15 17:42:35;;;;;;;11.98;8.13;;;;;;;;;;6216038;23;20360;-75
2021/10/15 17:45:00;;;;;;;7.18;5.35;;;;;;;;;;6215421;23;20000;-76
2021/10/15 17:47:26;;;;;;;5.60;3.88;;;;;;;;;;6215768;23;20009;-74
2021/10/15 17:49:51;;;;;;;8.98;6.45;;;;;;;;;;6215695;23;20001;-75
2021/10/15 17:52:23;;;;;;;11.32;7.45;;;;;;;;;;6215455;23;20016;-76
2021/10/15 17:54:50;;;;;;;7.68;6.72;;;;;;;;;;6215620;23;20000;-76
2021/10/15 17:57:16;;;;;;;12.25;9.07;;;;;;;;;;6215606;23;20001;-80
2021/10/15 17:59:41;;;;;;;9.00;6.78;;;;;;;;;;6215701;23;20035;-79
2021/10/15 18:02:06;;;;;;;9.55;7.32;;;;;;;;;;6215516;23;20416;-75
2021/10/15 18:04:32;;;;;;;7.82;5.55;;;;;;;;;;6215531;23;20009;-74
2021/10/15 18:06:57;;;;;;;10.20;6.50;;;;;;;;;;6215601;23;20083;-75
2021/10/15 18:09:23;;;;;;;8.68;5.90;;;;;;;;;;6215246;23;20000;-78
2021/10/15 18:11:48;;;;;;;10.15;6.72;;;;;;;;;;6215303;23;20009;-79
2021/10/15 18:14:14;;;;;;;8.20;5.82;;;;;;;;;;6215279;23;20004;-78
2021/10/15 18:16:40;;;;;;;6.70;4.45;;;;;;;;;;6215672;23;20009;-79
2021/10/15 18:19:05;;;;;;;5.60;4.15;;;;;;;;;;6215958;23;20008;-78
2021/10/15 18:21:30;;;;;;;8.50;4.28;;;;;;;;;;6215352;23;20036;-79
2021/10/15 18:23:56;;;;;;;5.78;4.15;;;;;;;;;;6215663;23;20005;-78
2021/10/15 18:26:22;;;;;;;6.07;4.28;;;;;;;;;;6215518;23;20001;-80
2021/10/15 18:28:48;;;;;;;8.10;5.10;;;;;;;;;;6215625;23;20001;-75
2021/10/15 18:31:13;;;;;;;5.85;4.05;;;;;;;;;;6213438;23;20063;-74
2021/10/15 18:33:41;;;;;;;7.13;3.88;;;;;;;;;;6215556;23;20008;-74
2021/10/15 18:36:07;;;;;;;6.65;3.90;;;;;;;;;;6239238;23;20051;-75
2021/10/15 18:38:33;;;;;;;4.68;4.18;;;;;;;;;;6216549;23;20008;-75
2021/10/15 18:40:59;;;;;;;13.73;8.05;;;;;;;;;;6217695;23;20078;-76
2021/10/15 18:43:25;;;;;;;7.40;4.82;;;;;;;;;;6218106;23;20301;-75
2021/10/15 18:45:50;;;;;;;4.30;3.85;;;;;;;;;;6218668;23;20008;-76
2021/10/15 18:48:16;;;;;;;5.78;4.28;;;;;;;;;;6217820;23;20004;-76
2021/10/15 18:50:43;;;;;;;7.97;5.72;;;;;;;;;;6241860;23;20015;-74
2021/10/15 18:53:11;;;;;;;8.85;4.93;;;;;;;;;;6240429;23;20020;-74
2021/10/15 18:55:36;;;;;;;6.35;3.72;;;;;;;;;;6241001;23;20051;-75
2021/10/15 18:58:02;;;;;;;6.18;4.45;;;;;;;;;;6217239;23;20331;-75
2021/10/15 19:00:27;;;;;;;7.93;5.80;;;;;;;;;;6216928;23;20415;-77
2021/10/15 19:02:53;;;;;;;17.10;8.38;;;;;;;;;;6217218;23;20000;-77
2021/10/15 19:05:18;;;;;;;7.30;5.03;;;;;;;;;;6217124;23;20028;-75
2021/10/15 19:07:44;;;;;;;6.72;4.47;;;;;;;;;;6216278;23;20030;-77
2021/10/15 19:10:09;;;;;;;9.13;5.40;;;;;;;;;;6216467;23;20395;-79
2021/10/15 19:12:35;;;;;;;8.45;6.97;;;;;;;;;;6241257;23;20012;-82
2021/10/15 19:15:00;;;;;;;7.30;5.60;;;;;;;;;;6215507;23;20317;-82
2021/10/15 19:17:26;;;;;;;7.25;4.60;;;;;;;;;;6217164;23;20000;-81
2021/10/15 19:19:52;;;;;;;5.90;5.00;;;;;;;;;;6217470;23;20066;-80
2021/10/15 19:22:17;;;;;;;6.35;4.78;;;;;;;;;;6217248;23;20039;-82
2021/10/15 19:24:47;;;;;;;6.72;4.85;;;;;;;;;;6217143;23;20075;-82
2021/10/15 19:27:14;;;;;;;6.72;4.47;;;;;;;;;;6214550;23;20043;-77
2021/10/15 19:29:40;;;;;;;7.45;5.28;;;;;;;;;;6216558;23;20058;-77
2021/10/15 19:32:11;;;;;;;8.05;5.15;;;;;;;;;;6216874;23;20004;-76
2021/10/15 19:34:39;;;;;;;8.30;4.80;;;;;;;;;;6216852;23;20004;-75
2021/10/15 19:37:09;;;;;;;6.68;4.93;;;;;;;;;;6216965;23;20008;-74
2021/10/15 19:39:34;;;;;;;8.38;6.10;;;;;;;;;;6216926;23;20001;-75
2021/10/15 19:42:01;;;;;;;10.40;6.75;;;;;;;;;;6215250;23;20020;-75
2021/10/15 19:44:26;;;;;;;9.05;6.10;;;;;;;;;;6216849;23;19996;-75
2021/10/15 19:46:51;;;;;;;7.43;5.45;;;;;;;;;;6216838;23;20371;-74
2021/10/15 19:49:17;;;;;;;14.05;8.73;;;;;;;;;;6214823;23;20332;-75
2021/10/15 19:51:43;;;;;;;12.50;9.48;;;;;;;;;;6239810;23;20016;-74
2021/10/15 19:54:08;;;;;;;9.95;7.15;;;;;;;;;;6216454;23;20372;-77
2021/10/15 19:56:34;;;;;;;6.97;5.22;;;;;;;;;;6216686;23;20005;-77
2021/10/15 19:59:02;;;;;;;13.40;7.40;;;;;;;;;;6215677;23;20037;-78
2021/10/15 20:01:28;;;;;;;16.83;9.30;;;;;;;;;;6216191;23;20420;-78
2021/10/15 20:03:55;;;;;;;22.17;11.68;;;;;;;;;;6216789;23;20004;-75
2021/10/15 20:06:20;;;;;;;152.05;56.75;;;;;;;;;;6214874;23;20336;-74
2021/10/15 20:08:46;;;;;;;15.88;8.88;;;;;;;;;;6216669;23;20431;-74
2021/10/15 20:11:11;;;;;;;21.13;9.43;;;;;;;;;;6216564;23;19996;-74
2021/10/15 20:13:37;;;;;;;130.18;50.45;;;;;;;;;;6216580;23;20055;-74
2021/10/15 20:16:03;;;;;;;37.72;16.05;;;;;;;;;;6216500;23;20012;-78
2021/10/15 20:18:30;;;;;;;71.45;28.60;;;;;;;;;;6216865;23;20301;-78
2021/10/15 20:20:56;;;;;;;35.63;19.55;;;;;;;;;;6216502;23;19996;-75
2021/10/15 20:23:21;;;;;;;29.40;20.85;;;;;;;;;;6216586;23;20416;-76
2021/10/15 20:25:46;;;;;;;58.55;53.08;;;;;;;;;;6216367;23;20001;-75
2021/10/15 20:28:12;;;;;;;19.80;16.95;;;;;;;;;;6216728;23;20016;-75
2021/10/15 20:30:38;;;;;;;14.30;12.82;;;;;;;;;;6216319;23;20004;-77
2021/10/15 20:33:05;;;;;;;16.83;12.20;;;;;;;;;;6216405;23;20008;-75
2021/10/15 20:35:31;;;;;;;14.55;10.18;;;;;;;;;;6216367;23;20035;-75
2021/10/15 20:37:59;;;;;;;16.00;9.75;;;;;;;;;;6216175;23;20035;-74
2021/10/15 20:40:27;;;;;;;14.15;10.52;;;;;;;;;;6214683;23;20340;-75
2021/10/15 20:42:52;;;;;;;16.80;11.18;;;;;;;;;;6216553;23;20035;-74
2021/10/15 20:45:18;;;;;;;13.90;10.40;;;;;;;;;;6216454;23;20412;-75
2021/10/15 20:47:43;;;;;;;17.50;10.88;;;;;;;;;;6216275;23;20480;-76
2021/10/15 20:50:10;;;;;;;15.52;10.35;;;;;;;;;;6216061;23;20035;-75
2021/10/15 20:52:36;;;;;;;16.20;11.55;;;;;;;;;;6216096;23;20016;-74
2021/10/15 20:55:03;;;;;;;11.70;6.75;;;;;;;;;;6216124;23;20004;-76
2021/10/15 20:57:29;;;;;;;7.85;5.97;;;;;;;;;;6216230;23;20008;-78
2021/10/15 20:59:55;;;;;;;9.73;6.88;;;;;;;;;;6214523;23;20051;-77
2021/10/15 21:02:20;;;;;;;10.50;6.55;;;;;;;;;;6239762;23;20047;-75
2021/10/15 21:04:46;;;;;;;8.85;6.68;;;;;;;;;;6216068;23;20001;-75
2021/10/15 21:07:11;;;;;;;12.43;8.27;;;;;;;;;;6215925;23;20004;-77
2021/10/15 21:09:37;;;;;;;10.70;7.20;;;;;;;;;;6216004;23;20001;-76
2021/10/15 21:12:02;;;;;;;15.68;10.32;;;;;;;;;;6216219;23;20000;-79
2021/10/15 21:14:28;;;;;;;10.55;8.70;;;;;;;;;;6215775;23;20332;-77
2021/10/15 21:16:53;;;;;;;12.43;8.95;;;;;;;;;;6216121;23;20001;-79
2021/10/15 21:19:19;;;;;;;15.48;11.02;;;;;;;;;;6215712;23;19999;-77
2021/10/15 21:21:44;;;;;;;15.43;10.75;;;;;;;;;;6215801;23;20011;-78
2021/10/15 21:24:09;;;;;;;16.23;11.30;;;;;;;;;;6215896;23;20007;-77
2021/10/15 21:26:35;;;;;;;12.40;10.63;;;;;;;;;;6215741;23;20005;-78
2021/10/15 21:29:00;;;;;;;15.13;10.32;;;;;;;;;;6215955;23;20001;-79
2021/10/15 21:31:25;;;;;;;16.75;10.38;;;;;;;;;;6215720;23;20506;-78
2021/10/15 21:33:51;;;;;;;14.85;11.02;;;;;;;;;;6215982;23;20005;-77
2021/10/15 21:36:16;;;;;;;14.18;8.93;;;;;;;;;;6215806;23;20015;-77
2021/10/15 21:38:42;;;;;;;11.65;6.38;;;;;;;;;;6215894;23;20033;-78
2021/10/15 21:41:07;;;;;;;13.38;9.88;;;;;;;;;;6215627;23;20008;-78
2021/10/15 21:43:33;;;;;;;16.40;9.70;;;;;;;;;;6215927;23;20412;-79
2021/10/15 21:45:58;;;;;;;10.82;8.07;;;;;;;;;;6215628;23;20015;-76
2021/10/15 21:48:24;;;;;;;9.20;6.78;;;;;;;;;;6215621;23;20040;-79
2021/10/15 21:50:50;;;;;;;13.93;9.20;;;;;;;;;;6215466;23;20004;-76
2021/10/15 21:53:15;;;;;;;14.02;8.23;;;;;;;;;;6215426;23;20019;-79
2021/10/15 21:55:41;;;;;;;9.98;7.25;;;;;;;;;;6215811;23;20000;-79
2021/10/15 21:58:06;;;;;;;13.32;8.30;;;;;;;;;;6215674;23;20000;-79
2021/10/15 22:00:32;;;;;;;14.43;8.35;;;;;;;;;;6215863;23;20001;-77
2021/10/15 22:02:57;;;;;;;11.35;8.50;;;;;;;;;;6215707;23;20427;-78
2021/10/15 22:05:27;;;;;;;10.95;8.45;;;;;;;;;;6239337;23;20018;-77
2021/10/15 22:07:53;;;;;;;12.70;8.65;;;;;;;;;;6215577;23;20009;-76
2021/10/15 22:10:20;;;;;;;11.88;7.90;;;;;;;;;;6215575;23;20000;-78
2021/10/15 22:12:45;;;;;;;11.15;8.38;;;;;;;;;;6215211;23;20008;-75
2021/10/15 22:15:12;;;;;;;11.10;9.10;;;;;;;;;;6215638;23;20001;-78
2021/10/15 22:17:38;;;;;;;11.48;8.40;;;;;;;;;;6215279;23;20087;-75
2021/10/15 22:20:05;;;;;;;12.68;8.20;;;;;;;;;;6215393;23;20008;-75
2021/10/15 22:22:30;;;;;;;12.25;8.70;;;;;;;;;;6215768;23;20011;-76
2021/10/15 22:24:55;;;;;;;13.50;8.60;;;;;;;;;;6215399;23;19996;-74
2021/10/15 22:27:21;;;;;;;9.98;7.35;;;;;;;;;;6215637;23;20001;-77
2021/10/15 22:29:46;;;;;;;9.93;6.75;;;;;;;;;;6215609;23;20070;-76
2021/10/15 22:32:12;;;;;;;11.13;8.50;;;;;;;;;;6215467;23;20016;-77
2021/10/15 22:34:37;;;;;;;15.52;9.57;;;;;;;;;;6215523;23;20007;-76
2021/10/15 22:37:03;;;;;;;11.70;8.70;;;;;;;;;;6215369;23;20531;-74
2021/10/15 22:39:28;;;;;;;12.30;8.25;;;;;;;;;;6215477;23;20005;-76
2021/10/15 22:41:54;;;;;;;10.45;8.35;;;;;;;;;;6215293;23;20000;-77
